Time;durP1;ratioP1;P1;durP2;ratioP2;P2;SDS_P1;SDS_P2;PMS_P1;PMS_P2;Temp;Humidity;BMP_temperature;BMP_pressure;BME280_temperature;BME280_humidity;BME280_pressure;Samples;Min_cycle;Max_cycle;Signal;HPM_P1;HPM_P2
2021/07/11 00:02:24;;;;;;;27.93;19.87;;;;;;;;;;5078412;28;20475;-55
2021/07/11 00:05:20;;;;;;;29.00;20.97;;;;;;;;;;5156046;28;20460;-55
2021/07/11 00:07:55;;;;;;;28.83;22.60;;;;;;;;;;5034503;28;20454;-56
2021/07/11 00:10:23;;;;;;;33.70;21.27;;;;;;;;;;5043645;28;20505;-56
2021/07/11 00:13:17;;;;;;;26.93;22.37;;;;;;;;;;5039557;28;20480;-55
2021/07/11 00:15:44;;;;;;;60.60;47.73;;;;;;;;;;5053088;28;20485;-55
2021/07/11 00:18:13;;;;;;;44.50;31.97;;;;;;;;;;5056707;28;20525;-52
2021/07/11 00:20:59;;;;;;;26.90;21.70;;;;;;;;;;5054746;28;20458;-54
2021/07/11 00:23:27;;;;;;;41.57;33.13;;;;;;;;;;5051568;28;20468;-56
2021/07/11 00:25:55;;;;;;;51.87;39.53;;;;;;;;;;5039862;28;20470;-57
2021/07/11 00:28:54;;;;;;;24.17;19.30;;;;;;;;;;5055068;28;20476;-59
2021/07/11 00:31:22;;;;;;;60.50;43.10;;;;;;;;;;5054638;28;20536;-55
2021/07/11 00:33:49;;;;;;;43.63;34.37;;;;;;;;;;5054930;28;20462;-54
2021/07/11 00:36:22;;;;;;;53.47;40.60;;;;;;;;;;5054402;28;20472;-57
2021/07/11 00:38:50;;;;;;;78.03;58.23;;;;;;;;;;5052669;28;20546;-53
2021/07/11 00:41:17;;;;;;;60.07;50.03;;;;;;;;;;5054773;28;20461;-55
2021/07/11 00:44:15;;;;;;;165.60;135.30;;;;;;;;;;5054855;27;20473;-56
2021/07/11 00:46:46;;;;;;;58.90;45.27;;;;;;;;;;5045404;28;20485;-57
2021/07/11 00:49:13;;;;;;;73.27;54.83;;;;;;;;;;5054476;28;20462;-56
2021/07/11 00:51:41;;;;;;;69.30;50.17;;;;;;;;;;5054451;28;20496;-55
2021/07/11 00:54:09;;;;;;;45.07;34.73;;;;;;;;;;5038632;28;20470;-58
2021/07/11 00:56:44;;;;;;;70.50;50.17;;;;;;;;;;5034957;28;20416;-54
2021/07/11 00:59:12;;;;;;;49.47;39.23;;;;;;;;;;5034798;28;20459;-52
2021/07/11 01:01:42;;;;;;;45.23;35.20;;;;;;;;;;5114899;28;20479;-56
2021/07/11 01:04:19;;;;;;;53.87;42.03;;;;;;;;;;5054237;28;20457;-55
2021/07/11 01:06:50;;;;;;;59.13;42.70;;;;;;;;;;5053016;28;20576;-58
2021/07/11 01:09:22;;;;;;;25.77;19.00;;;;;;;;;;5054677;28;20438;-56
2021/07/11 01:11:51;;;;;;;34.77;26.60;;;;;;;;;;5043279;28;20458;-58
2021/07/11 01:14:19;;;;;;;54.63;35.60;;;;;;;;;;5054468;28;20454;-57
2021/07/11 01:19:57;;;;;;;49.33;35.93;;;;;;;;;;5050157;28;20490;-56
2021/07/11 01:22:27;;;;;;;45.10;32.43;;;;;;;;;;5035391;28;20479;-51
2021/07/11 01:25:01;;;;;;;33.17;25.27;;;;;;;;;;5034994;28;20521;-54
2021/07/11 01:27:31;;;;;;;51.27;40.00;;;;;;;;;;5048643;28;20486;-58
2021/07/11 01:29:59;;;;;;;53.13;39.03;;;;;;;;;;5053796;28;20474;-56
2021/07/11 01:32:27;;;;;;;55.03;38.20;;;;;;;;;;5053969;28;20442;-57
2021/07/11 01:34:55;;;;;;;39.97;27.87;;;;;;;;;;5054104;28;20433;-56
2021/07/11 01:37:42;;;;;;;23.83;19.90;;;;;;;;;;5054086;28;20491;-56
2021/07/11 01:40:10;;;;;;;52.47;37.80;;;;;;;;;;5053745;28;20509;-53
2021/07/11 01:42:40;;;;;;;25.50;20.03;;;;;;;;;;5047916;28;20477;-56
2021/07/11 01:45:10;;;;;;;37.93;27.37;;;;;;;;;;5054420;28;20476;-53
2021/07/11 01:47:38;;;;;;;45.57;37.07;;;;;;;;;;5053280;28;20666;-58
2021/07/11 01:50:06;;;;;;;38.13;30.17;;;;;;;;;;5054120;28;20450;-54
2021/07/11 01:52:52;;;;;;;31.27;23.97;;;;;;;;;;5053957;28;20518;-53
2021/07/11 01:55:20;;;;;;;45.83;34.90;;;;;;;;;;5049016;28;20468;-55
2021/07/11 01:57:50;;;;;;;34.73;30.33;;;;;;;;;;5048585;28;20501;-56
2021/07/11 02:00:23;;;;;;;37.27;28.20;;;;;;;;;;5054168;28;20458;-58
2021/07/11 02:02:51;;;;;;;20.33;16.00;;;;;;;;;;5053345;28;20499;-56
2021/07/11 02:05:19;;;;;;;14.00;12.30;;;;;;;;;;5052639;28;20458;-56
2021/07/11 02:08:03;;;;;;;19.67;13.20;;;;;;;;;;5052041;28;20470;-55
2021/07/11 02:10:30;;;;;;;19.40;13.60;;;;;;;;;;5054354;28;20470;-55
2021/07/11 02:13:02;;;;;;;17.87;12.10;;;;;;;;;;5053983;28;20458;-55
2021/07/11 02:15:38;;;;;;;16.10;12.70;;;;;;;;;;5053981;28;20474;-57
2021/07/11 02:18:08;;;;;;;13.97;11.43;;;;;;;;;;5052338;28;20486;-52
2021/07/11 02:20:35;;;;;;;13.87;11.40;;;;;;;;;;5044456;28;20478;-54
2021/07/11 02:23:06;;;;;;;18.73;13.30;;;;;;;;;;5033834;28;20463;-54
2021/07/11 02:25:33;;;;;;;22.70;18.40;;;;;;;;;;5035078;28;20518;-55
2021/07/11 02:28:08;;;;;;;22.53;18.20;;;;;;;;;;5052868;28;20445;-55
2021/07/11 02:30:51;;;;;;;19.20;13.10;;;;;;;;;;5052258;28;20438;-55
2021/07/11 02:33:27;;;;;;;23.80;14.50;;;;;;;;;;5053557;28;20466;-57
2021/07/11 02:35:58;;;;;;;19.53;14.57;;;;;;;;;;5053409;28;20450;-55
2021/07/11 02:44:35;;;;;;;23.17;16.23;;;;;;;;;;5050811;28;20557;-56
2021/07/11 02:47:04;;;;;;;20.60;16.73;;;;;;;;;;5052760;28;20813;-54
2021/07/11 02:49:58;;;;;;;34.10;21.97;;;;;;;;;;5053124;28;20496;-56
2021/07/11 02:52:25;;;;;;;27.63;18.50;;;;;;;;;;5098962;27;20534;-53
2021/07/11 02:54:55;;;;;;;30.03;18.77;;;;;;;;;;5053330;28;20474;-56
2021/07/11 02:57:29;;;;;;;24.10;19.23;;;;;;;;;;5053312;28;20472;-54
2021/07/11 02:59:59;;;;;;;31.83;20.03;;;;;;;;;;5050512;28;20535;-58
2021/07/11 03:02:30;;;;;;;31.50;21.50;;;;;;;;;;5056665;28;20530;-57
2021/07/11 03:05:07;;;;;;;27.17;20.40;;;;;;;;;;5047738;28;20466;-54
2021/07/11 03:07:35;;;;;;;27.30;23.13;;;;;;;;;;5053408;28;20493;-59
2021/07/11 03:10:02;;;;;;;28.20;20.10;;;;;;;;;;5052788;28;20514;-54
2021/07/11 03:12:41;;;;;;;24.80;20.17;;;;;;;;;;5052779;28;20458;-58
2021/07/11 03:15:11;;;;;;;23.73;18.93;;;;;;;;;;5052549;28;20510;-59
2021/07/11 03:17:40;;;;;;;26.27;21.10;;;;;;;;;;5058127;28;20466;-52
2021/07/11 03:20:09;;;;;;;26.00;20.53;;;;;;;;;;5052889;28;20466;-59
2021/07/11 03:22:38;;;;;;;25.90;18.93;;;;;;;;;;5052806;28;20462;-54
2021/07/11 03:25:27;;;;;;;29.87;21.70;;;;;;;;;;5052547;28;20459;-59
2021/07/11 03:27:55;;;;;;;25.83;20.53;;;;;;;;;;5052136;28;20489;-56
2021/07/11 03:30:24;;;;;;;29.27;22.60;;;;;;;;;;5052175;28;20469;-54
2021/07/11 03:33:10;;;;;;;33.40;23.60;;;;;;;;;;5052469;28;20484;-54
2021/07/11 03:35:38;;;;;;;28.77;21.60;;;;;;;;;;5032955;28;20517;-55
2021/07/11 03:38:08;;;;;;;28.27;21.10;;;;;;;;;;5032374;28;20463;-57
2021/07/11 03:40:58;;;;;;;24.33;19.67;;;;;;;;;;5041952;28;20479;-57
2021/07/11 03:43:27;;;;;;;27.13;20.63;;;;;;;;;;5046754;28;20489;-54
2021/07/11 03:45:58;;;;;;;25.27;20.03;;;;;;;;;;5055822;28;20537;-58
2021/07/11 03:48:46;;;;;;;26.77;19.27;;;;;;;;;;5056113;28;20434;-58
2021/07/11 03:51:14;;;;;;;26.33;19.60;;;;;;;;;;5055277;28;20474;-56
2021/07/11 03:53:43;;;;;;;28.03;21.83;;;;;;;;;;5050583;28;20442;-55
2021/07/11 03:56:14;;;;;;;28.80;20.10;;;;;;;;;;5055460;28;20458;-54
2021/07/11 03:58:42;;;;;;;23.10;18.40;;;;;;;;;;5055524;28;20475;-55
2021/07/11 04:01:11;;;;;;;26.43;18.30;;;;;;;;;;5055128;28;20458;-57
2021/07/11 04:03:57;;;;;;;25.80;18.10;;;;;;;;;;5054609;28;20829;-53
2021/07/11 04:06:25;;;;;;;24.13;17.00;;;;;;;;;;5055990;28;20485;-56
2021/07/11 04:08:54;;;;;;;19.93;16.00;;;;;;;;;;5055735;28;20502;-55
2021/07/11 04:11:28;;;;;;;19.73;15.37;;;;;;;;;;5055470;28;20663;-57
2021/07/11 04:13:56;;;;;;;21.83;17.40;;;;;;;;;;5038408;28;20459;-56
2021/07/11 04:16:26;;;;;;;21.07;17.13;;;;;;;;;;5034976;28;20463;-55
2021/07/11 04:19:02;;;;;;;24.80;15.60;;;;;;;;;;5050938;28;20477;-57
2021/07/11 04:21:33;;;;;;;21.73;16.70;;;;;;;;;;5055595;28;20476;-58
2021/07/11 04:24:03;;;;;;;18.17;14.17;;;;;;;;;;5055480;28;20464;-55
2021/07/11 04:26:35;;;;;;;21.00;16.00;;;;;;;;;;5046303;28;20502;-54
2021/07/11 04:29:03;;;;;;;19.43;14.90;;;;;;;;;;5053989;28;20486;-56
2021/07/11 04:31:33;;;;;;;20.17;15.57;;;;;;;;;;5044701;28;20486;-62
2021/07/11 04:34:11;;;;;;;20.23;15.57;;;;;;;;;;5054089;28;20472;-54
2021/07/11 04:36:38;;;;;;;18.10;14.40;;;;;;;;;;5050857;28;20487;-58
2021/07/11 04:39:09;;;;;;;20.50;15.47;;;;;;;;;;5054844;28;20503;-55
2021/07/11 04:41:42;;;;;;;21.10;15.07;;;;;;;;;;5054719;28;20442;-55
2021/07/11 04:44:31;;;;;;;18.93;15.50;;;;;;;;;;5035610;28;20884;-57
2021/07/11 04:47:00;;;;;;;17.20;14.13;;;;;;;;;;5042799;28;20474;-53
2021/07/11 04:49:28;;;;;;;23.00;15.67;;;;;;;;;;5051204;28;20545;-55
2021/07/11 04:51:57;;;;;;;21.50;16.00;;;;;;;;;;5053907;28;20466;-55
2021/07/11 04:54:31;;;;;;;20.73;15.80;;;;;;;;;;5072410;28;20461;-55
2021/07/11 04:57:03;;;;;;;21.40;16.13;;;;;;;;;;5138811;28;20473;-54
2021/07/11 04:59:30;;;;;;;17.83;15.43;;;;;;;;;;5047202;28;20462;-55
2021/07/11 05:01:59;;;;;;;18.37;15.20;;;;;;;;;;5045177;28;20494;-57
2021/07/11 05:04:29;;;;;;;17.90;13.67;;;;;;;;;;5049795;28;20459;-56
2021/07/11 05:06:56;;;;;;;17.70;14.67;;;;;;;;;;5051549;28;20553;-55
2021/07/11 05:09:25;;;;;;;19.47;15.77;;;;;;;;;;5043851;28;20454;-59
2021/07/11 05:11:53;;;;;;;18.10;15.40;;;;;;;;;;5042505;28;20471;-57
2021/07/11 05:14:21;;;;;;;18.50;14.77;;;;;;;;;;5108717;27;20441;-57
2021/07/11 05:16:54;;;;;;;22.27;16.37;;;;;;;;;;5068471;27;20613;-56
2021/07/11 05:19:23;;;;;;;22.23;15.30;;;;;;;;;;5054528;28;20454;-55
2021/07/11 05:21:50;;;;;;;18.00;15.73;;;;;;;;;;5054748;28;20489;-56
2021/07/11 05:24:19;;;;;;;21.53;15.90;;;;;;;;;;5053876;28;20489;-55
2021/07/11 05:26:50;;;;;;;23.30;16.60;;;;;;;;;;5052061;28;20478;-56
2021/07/11 05:29:17;;;;;;;24.53;15.30;;;;;;;;;;5053847;28;20460;-54
2021/07/11 05:32:22;;;;;;;23.87;17.60;;;;;;;;;;5054014;28;20465;-59
2021/07/11 05:34:54;;;;;;;21.30;15.40;;;;;;;;;;5044279;28;20504;-54
2021/07/11 05:37:22;;;;;;;23.33;17.00;;;;;;;;;;5040864;28;20450;-53
2021/07/11 05:39:50;;;;;;;23.07;15.37;;;;;;;;;;5048012;28;20482;-54
2021/07/11 05:42:19;;;;;;;21.60;16.17;;;;;;;;;;5034922;28;20461;-58
2021/07/11 05:44:52;;;;;;;22.67;18.10;;;;;;;;;;5038746;28;20462;-55
2021/07/11 05:47:19;;;;;;;20.23;15.67;;;;;;;;;;5046882;28;20498;-58
2021/07/11 05:52:52;;;;;;;20.30;14.50;;;;;;;;;;5036622;28;20491;-55
2021/07/11 05:55:19;;;;;;;20.23;15.80;;;;;;;;;;5053174;27;20499;-57
2021/07/11 05:58:06;;;;;;;19.00;15.97;;;;;;;;;;5040783;28;20966;-57
2021/07/11 06:00:33;;;;;;;25.63;16.90;;;;;;;;;;5054890;28;20515;-56
2021/07/11 06:03:01;;;;;;;19.43;14.93;;;;;;;;;;5052604;28;20508;-56
2021/07/11 06:05:29;;;;;;;23.50;15.40;;;;;;;;;;5052962;28;20541;-57
2021/07/11 06:07:58;;;;;;;22.87;17.20;;;;;;;;;;5048443;28;20525;-59
2021/07/11 06:10:33;;;;;;;25.20;15.83;;;;;;;;;;5044553;28;20462;-58
2021/07/11 06:13:08;;;;;;;22.90;16.20;;;;;;;;;;5032838;28;20474;-59
2021/07/11 06:15:40;;;;;;;19.40;15.47;;;;;;;;;;5039969;28;20458;-59
2021/07/11 06:18:08;;;;;;;18.03;13.77;;;;;;;;;;5048750;28;20450;-59
2021/07/11 06:20:35;;;;;;;20.97;15.50;;;;;;;;;;5051898;28;20457;-58
2021/07/11 06:23:06;;;;;;;18.00;14.10;;;;;;;;;;5052170;28;20460;-53
2021/07/11 06:25:33;;;;;;;21.93;14.73;;;;;;;;;;5051763;28;20418;-59
2021/07/11 06:28:01;;;;;;;16.80;14.73;;;;;;;;;;5051908;28;20501;-55
2021/07/11 06:30:43;;;;;;;20.40;14.90;;;;;;;;;;5051661;28;20509;-56
2021/07/11 06:33:12;;;;;;;20.33;14.00;;;;;;;;;;5052845;28;20521;-59
2021/07/11 06:35:39;;;;;;;15.70;14.03;;;;;;;;;;5051674;28;20517;-55
2021/07/11 06:38:22;;;;;;;16.37;12.80;;;;;;;;;;5052049;28;20461;-59
2021/07/11 06:40:49;;;;;;;15.23;12.50;;;;;;;;;;5051390;28;20716;-57
2021/07/11 06:43:17;;;;;;;22.70;15.90;;;;;;;;;;5052116;28;20465;-58
2021/07/11 06:45:50;;;;;;;19.00;13.73;;;;;;;;;;5051980;28;20457;-59
2021/07/11 06:48:17;;;;;;;17.87;13.10;;;;;;;;;;5050955;28;20856;-57
2021/07/11 06:50:45;;;;;;;14.27;12.10;;;;;;;;;;5052007;28;20510;-58
2021/07/11 06:53:26;;;;;;;13.20;11.87;;;;;;;;;;5052220;28;20493;-57
2021/07/11 06:55:53;;;;;;;15.63;12.93;;;;;;;;;;5050939;28;20477;-53
2021/07/11 06:58:21;;;;;;;15.97;13.37;;;;;;;;;;5051322;28;20505;-58
2021/07/11 07:00:48;;;;;;;17.10;13.60;;;;;;;;;;5051131;28;20525;-55
2021/07/11 07:03:16;;;;;;;15.43;12.67;;;;;;;;;;5051368;28;20517;-55
2021/07/11 07:05:43;;;;;;;15.27;13.13;;;;;;;;;;5036950;28;20451;-56
2021/07/11 07:08:12;;;;;;;24.27;13.60;;;;;;;;;;5031532;28;20497;-55
2021/07/11 07:10:44;;;;;;;15.53;13.57;;;;;;;;;;5037193;28;20515;-56
2021/07/11 07:13:12;;;;;;;17.87;13.80;;;;;;;;;;5051191;28;20461;-57
2021/07/11 07:15:54;;;;;;;20.97;17.10;;;;;;;;;;5050471;28;20462;-59
2021/07/11 07:18:22;;;;;;;21.33;13.77;;;;;;;;;;5049146;28;20442;-56
2021/07/11 07:20:52;;;;;;;18.20;13.23;;;;;;;;;;5032517;28;20459;-57
2021/07/11 07:23:21;;;;;;;17.30;12.93;;;;;;;;;;5032762;28;20451;-56
2021/07/11 07:25:51;;;;;;;15.10;12.07;;;;;;;;;;5041908;28;20442;-59
2021/07/11 07:28:21;;;;;;;17.80;14.20;;;;;;;;;;5052070;28;20485;-54
2021/07/11 07:30:49;;;;;;;17.83;14.70;;;;;;;;;;5052214;28;20454;-58
2021/07/11 07:33:23;;;;;;;15.27;13.07;;;;;;;;;;5053432;28;20486;-56
2021/07/11 07:35:50;;;;;;;12.90;11.30;;;;;;;;;;5052086;28;20557;-56
2021/07/11 07:38:18;;;;;;;18.17;13.77;;;;;;;;;;5051484;28;20443;-58
2021/07/11 07:41:03;;;;;;;16.73;11.53;;;;;;;;;;5052428;28;20430;-54
2021/07/11 07:43:37;;;;;;;14.97;12.20;;;;;;;;;;5052247;28;20437;-57
2021/07/11 07:46:09;;;;;;;13.27;11.73;;;;;;;;;;5052129;28;20479;-54
2021/07/11 07:48:41;;;;;;;14.13;11.50;;;;;;;;;;5109761;28;20470;-58
2021/07/11 07:51:09;;;;;;;17.40;13.33;;;;;;;;;;5066586;28;20434;-60
2021/07/11 07:53:36;;;;;;;13.10;10.27;;;;;;;;;;5051775;28;20454;-56
2021/07/11 07:56:17;;;;;;;22.30;11.93;;;;;;;;;;5051712;28;20438;-58
2021/07/11 07:58:44;;;;;;;14.00;10.40;;;;;;;;;;5051653;28;20442;-56
2021/07/11 08:01:12;;;;;;;15.67;11.20;;;;;;;;;;5043154;28;20474;-60
2021/07/11 08:04:04;;;;;;;14.37;11.73;;;;;;;;;;5031543;28;20459;-59
2021/07/11 08:06:31;;;;;;;13.50;11.47;;;;;;;;;;5030637;28;20463;-57
2021/07/11 08:09:00;;;;;;;13.83;11.43;;;;;;;;;;5030839;28;20494;-58
2021/07/11 08:11:37;;;;;;;12.23;10.80;;;;;;;;;;5031237;28;20998;-56
2021/07/11 08:14:05;;;;;;;17.10;11.67;;;;;;;;;;5049550;28;20465;-58
2021/07/11 08:16:32;;;;;;;17.57;11.77;;;;;;;;;;5050584;28;20482;-59
2021/07/11 08:19:11;;;;;;;13.83;12.17;;;;;;;;;;5050726;28;20466;-54
2021/07/11 08:21:40;;;;;;;15.73;12.17;;;;;;;;;;5050545;28;20450;-58
2021/07/11 08:24:08;;;;;;;14.50;9.83;;;;;;;;;;5049332;28;20449;-58
2021/07/11 08:26:40;;;;;;;11.80;9.87;;;;;;;;;;5050310;28;20434;-60
2021/07/11 08:29:08;;;;;;;12.50;10.83;;;;;;;;;;5054128;28;20554;-57
2021/07/11 08:31:45;;;;;;;14.60;11.37;;;;;;;;;;5053694;28;20422;-59
2021/07/11 08:34:14;;;;;;;15.87;12.27;;;;;;;;;;5053849;28;20507;-57
2021/07/11 08:36:41;;;;;;;13.40;11.93;;;;;;;;;;5054456;28;20461;-58
2021/07/11 08:39:14;;;;;;;15.67;12.17;;;;;;;;;;5053367;28;20641;-58
2021/07/11 08:41:47;;;;;;;12.60;11.30;;;;;;;;;;5055469;28;20458;-59
2021/07/11 08:44:17;;;;;;;15.13;12.07;;;;;;;;;;5052427;28;20477;-56
2021/07/11 08:46:50;;;;;;;17.20;13.70;;;;;;;;;;5054956;28;20458;-59
2021/07/11 08:49:17;;;;;;;15.17;13.30;;;;;;;;;;5053993;28;20470;-58
2021/07/11 08:52:16;;;;;;;15.70;13.77;;;;;;;;;;5054118;28;20442;-58
2021/07/11 08:54:43;;;;;;;15.40;12.30;;;;;;;;;;5053281;28;20452;-55
2021/07/11 08:57:12;;;;;;;18.73;13.33;;;;;;;;;;5053793;28;20454;-58
2021/07/11 08:59:50;;;;;;;14.37;12.43;;;;;;;;;;5051245;28;20430;-58
2021/07/11 09:02:18;;;;;;;15.83;12.53;;;;;;;;;;5040558;28;20454;-57
2021/07/11 09:04:47;;;;;;;14.10;12.37;;;;;;;;;;5054646;27;20469;-57
2021/07/11 09:07:18;;;;;;;15.03;12.00;;;;;;;;;;5054669;28;20431;-59
2021/07/11 09:09:57;;;;;;;18.53;11.47;;;;;;;;;;5055083;28;20498;-57
2021/07/11 09:12:32;;;;;;;13.20;11.30;;;;;;;;;;5054587;28;20470;-58
2021/07/11 09:15:10;;;;;;;11.37;9.83;;;;;;;;;;5053994;28;20457;-59
2021/07/11 09:17:37;;;;;;;19.90;9.67;;;;;;;;;;5053954;27;20565;-58
2021/07/11 09:20:08;;;;;;;13.97;9.80;;;;;;;;;;5051099;28;20466;-56
2021/07/11 09:22:35;;;;;;;12.23;9.37;;;;;;;;;;5053616;28;20464;-58
2021/07/11 09:25:18;;;;;;;10.37;9.20;;;;;;;;;;5053530;28;20467;-59
2021/07/11 09:27:47;;;;;;;10.17;9.07;;;;;;;;;;5052784;28;20510;-57
2021/07/11 09:30:17;;;;;;;10.50;9.23;;;;;;;;;;5052366;28;20691;-56
2021/07/11 09:32:52;;;;;;;17.80;13.00;;;;;;;;;;5051790;28;20472;-57
2021/07/11 09:35:20;;;;;;;11.23;9.60;;;;;;;;;;5052378;28;20461;-59
2021/07/11 09:37:49;;;;;;;12.80;11.50;;;;;;;;;;5052557;28;20476;-56
2021/07/11 09:40:38;;;;;;;12.30;10.10;;;;;;;;;;5053693;28;20482;-55
2021/07/11 09:43:13;;;;;;;16.20;11.57;;;;;;;;;;5052694;28;20466;-59
2021/07/11 09:45:48;;;;;;;12.97;11.60;;;;;;;;;;5053401;28;20840;-59
2021/07/11 09:48:16;;;;;;;15.07;12.77;;;;;;;;;;5054041;28;20481;-56
2021/07/11 09:50:43;;;;;;;14.60;12.20;;;;;;;;;;5052000;28;20483;-61
2021/07/11 09:53:13;;;;;;;14.67;13.03;;;;;;;;;;5052356;28;20466;-58
2021/07/11 09:55:43;;;;;;;15.30;12.33;;;;;;;;;;5118944;27;20447;-59
2021/07/11 09:58:44;;;;;;;15.90;12.43;;;;;;;;;;5052925;28;20446;-59
2021/07/11 10:01:14;;;;;;;13.57;11.53;;;;;;;;;;5066184;28;20447;-59
2021/07/11 10:03:44;;;;;;;15.37;12.70;;;;;;;;;;5055848;28;20467;-59
2021/07/11 10:06:24;;;;;;;16.40;13.20;;;;;;;;;;5052795;28;20480;-59
2021/07/11 10:08:51;;;;;;;17.87;13.57;;;;;;;;;;5053486;28;20519;-58
2021/07/11 10:11:19;;;;;;;17.13;14.47;;;;;;;;;;5051415;28;20459;-59
2021/07/11 10:16:51;;;;;;;15.07;12.07;;;;;;;;;;5045685;28;20537;-57
2021/07/11 10:19:21;;;;;;;16.80;13.47;;;;;;;;;;5053887;28;20464;-56
2021/07/11 10:21:50;;;;;;;16.73;12.20;;;;;;;;;;5064394;27;20458;-58
2021/07/11 10:24:19;;;;;;;15.60;10.33;;;;;;;;;;5073533;28;20494;-58
2021/07/11 10:29:51;;;;;;;13.43;9.70;;;;;;;;;;5047241;28;20500;-58
2021/07/11 10:32:25;;;;;;;14.03;12.53;;;;;;;;;;5033839;28;20454;-56
2021/07/11 10:35:18;;;;;;;12.03;10.53;;;;;;;;;;5033686;28;20446;-60
2021/07/11 10:38:07;;;;;;;14.40;9.90;;;;;;;;;;5053646;28;20473;-59
2021/07/11 10:40:41;;;;;;;10.47;8.83;;;;;;;;;;5054258;28;20450;-57
2021/07/11 10:43:16;;;;;;;10.50;7.83;;;;;;;;;;5052611;28;20510;-56
2021/07/11 10:45:46;;;;;;;9.73;8.00;;;;;;;;;;5053084;28;20457;-58
2021/07/11 10:48:15;;;;;;;9.50;7.27;;;;;;;;;;5052404;28;20466;-55
2021/07/11 10:50:43;;;;;;;8.87;7.47;;;;;;;;;;5050983;28;20418;-57
2021/07/11 10:53:17;;;;;;;9.07;7.03;;;;;;;;;;5053445;28;20442;-57
2021/07/11 10:55:58;;;;;;;7.73;6.77;;;;;;;;;;5052274;28;20469;-55
2021/07/11 10:58:25;;;;;;;9.47;6.10;;;;;;;;;;5052942;28;20469;-61
2021/07/11 11:00:58;;;;;;;7.13;6.33;;;;;;;;;;5052846;28;20707;-59
2021/07/11 11:03:46;;;;;;;7.07;6.37;;;;;;;;;;5050170;28;20485;-57
2021/07/11 11:06:15;;;;;;;8.70;6.40;;;;;;;;;;5033620;28;20460;-55
2021/07/11 11:08:50;;;;;;;8.20;6.83;;;;;;;;;;5044686;28;20530;-56
2021/07/11 11:11:34;;;;;;;8.50;6.43;;;;;;;;;;5053086;28;20453;-59
2021/07/11 11:14:13;;;;;;;8.00;6.60;;;;;;;;;;5052764;28;20487;-59
2021/07/11 11:16:45;;;;;;;8.33;7.17;;;;;;;;;;5132980;28;20462;-58
2021/07/11 11:19:16;;;;;;;6.90;4.83;;;;;;;;;;5135865;27;20470;-58
2021/07/11 11:21:48;;;;;;;10.57;6.37;;;;;;;;;;5136782;28;20431;-58
2021/07/11 11:24:24;;;;;;;11.87;6.57;;;;;;;;;;5131078;28;20459;-59
2021/07/11 11:26:54;;;;;;;7.30;6.47;;;;;;;;;;5079409;28;20468;-57
2021/07/11 11:29:30;;;;;;;10.47;5.03;;;;;;;;;;5038204;28;20565;-59
2021/07/11 11:35:11;;;;;;;6.00;4.43;;;;;;;;;;5034073;28;20482;-57
2021/07/11 11:37:47;;;;;;;6.20;5.07;;;;;;;;;;5032758;28;20458;-59
2021/07/11 11:40:27;;;;;;;5.70;5.00;;;;;;;;;;5032493;28;20488;-59
2021/07/11 11:42:56;;;;;;;7.07;5.27;;;;;;;;;;5023319;28;20480;-58
2021/07/11 11:45:29;;;;;;;7.73;5.60;;;;;;;;;;5032673;28;20477;-59
2021/07/11 11:48:09;;;;;;;5.63;5.03;;;;;;;;;;5033026;28;20450;-57
2021/07/11 11:50:40;;;;;;;5.27;4.67;;;;;;;;;;5030740;28;20496;-59
2021/07/11 11:53:10;;;;;;;9.93;5.73;;;;;;;;;;5032739;28;20457;-59
2021/07/11 11:55:57;;;;;;;11.00;7.57;;;;;;;;;;5032200;28;20521;-56
2021/07/11 11:58:29;;;;;;;5.13;4.40;;;;;;;;;;5047146;28;20466;-55
2021/07/11 12:01:05;;;;;;;6.10;5.47;;;;;;;;;;5049907;28;20444;-57
2021/07/11 12:03:36;;;;;;;8.50;5.43;;;;;;;;;;5036362;28;20489;-59
2021/07/11 12:08:56;;;;;;;7.97;5.70;;;;;;;;;;5008544;28;20558;-58
2021/07/11 12:11:23;;;;;;;6.20;5.30;;;;;;;;;;5048299;28;20484;-56
2021/07/11 12:14:07;;;;;;;5.03;4.43;;;;;;;;;;5056023;28;20426;-56
2021/07/11 12:16:35;;;;;;;5.00;4.00;;;;;;;;;;5037253;28;20935;-57
2021/07/11 12:19:05;;;;;;;5.13;3.80;;;;;;;;;;5036204;28;20470;-60
2021/07/11 12:21:56;;;;;;;4.13;3.50;;;;;;;;;;5045897;28;20571;-60
2021/07/11 12:27:22;;;;;;;5.90;4.70;;;;;;;;;;5059166;28;20433;-58
2021/07/11 12:30:08;;;;;;;5.73;3.83;;;;;;;;;;5035838;28;20479;-57
2021/07/11 12:32:40;;;;;;;6.23;4.00;;;;;;;;;;5046124;28;20486;-58
2021/07/11 12:35:09;;;;;;;8.27;4.83;;;;;;;;;;5055461;28;20448;-61
2021/07/11 12:37:50;;;;;;;6.63;4.80;;;;;;;;;;5055491;27;20498;-57
2021/07/11 12:40:19;;;;;;;4.83;2.60;;;;;;;;;;5054798;28;20473;-57
2021/07/11 12:43:00;;;;;;;5.87;2.90;;;;;;;;;;5053926;28;20450;-57
2021/07/11 12:45:59;;;;;;;7.03;4.07;;;;;;;;;;5054431;28;20786;-59
2021/07/11 12:48:40;;;;;;;8.37;4.23;;;;;;;;;;5055389;28;20513;-57
2021/07/11 12:51:20;;;;;;;11.33;5.10;;;;;;;;;;5055646;28;20492;-58
2021/07/11 12:53:48;;;;;;;8.37;7.27;;;;;;;;;;5055486;28;20469;-58
2021/07/11 12:56:20;;;;;;;4.17;3.23;;;;;;;;;;5055425;28;20506;-58
2021/07/11 12:59:22;;;;;;;5.00;2.90;;;;;;;;;;5054989;28;20499;-56
2021/07/11 13:01:50;;;;;;;5.30;3.63;;;;;;;;;;5052954;28;20493;-59
2021/07/11 13:04:21;;;;;;;3.77;2.63;;;;;;;;;;5054908;28;20501;-57
2021/07/11 13:06:51;;;;;;;4.73;2.90;;;;;;;;;;5054877;28;20530;-59
2021/07/11 13:09:19;;;;;;;5.07;3.23;;;;;;;;;;5055033;28;20599;-58
2021/07/11 13:11:55;;;;;;;6.17;4.00;;;;;;;;;;5074420;27;20646;-58
2021/07/11 13:14:36;;;;;;;6.90;3.37;;;;;;;;;;5053155;28;20509;-57
2021/07/11 13:17:23;;;;;;;5.90;3.60;;;;;;;;;;5053695;28;20447;-59
2021/07/11 13:19:50;;;;;;;7.17;4.07;;;;;;;;;;5053231;28;20458;-55
2021/07/11 13:22:18;;;;;;;4.67;2.80;;;;;;;;;;5052915;28;20640;-60
2021/07/11 13:24:48;;;;;;;7.13;3.60;;;;;;;;;;5061302;27;20581;-58
2021/07/11 13:27:26;;;;;;;5.57;3.53;;;;;;;;;;5061786;27;20462;-59
2021/07/11 13:29:58;;;;;;;6.80;3.40;;;;;;;;;;5046685;28;20477;-58
2021/07/11 13:32:31;;;;;;;4.47;3.33;;;;;;;;;;5122804;27;20474;-56
2021/07/11 13:34:58;;;;;;;8.97;4.33;;;;;;;;;;5054560;28;20461;-59
2021/07/11 13:37:29;;;;;;;4.70;4.00;;;;;;;;;;5054690;28;20450;-59
2021/07/11 13:40:21;;;;;;;6.30;4.33;;;;;;;;;;5054641;28;20484;-58
2021/07/11 13:42:53;;;;;;;9.37;3.80;;;;;;;;;;5053114;28;20513;-59
2021/07/11 13:45:21;;;;;;;4.83;3.87;;;;;;;;;;5054657;27;20457;-55
2021/07/11 13:47:49;;;;;;;6.20;3.70;;;;;;;;;;5054522;28;20521;-58
2021/07/11 13:50:19;;;;;;;8.00;5.37;;;;;;;;;;5054832;27;20525;-59
2021/07/11 13:53:06;;;;;;;4.87;3.80;;;;;;;;;;5041002;28;20472;-55
2021/07/11 13:55:40;;;;;;;5.80;3.43;;;;;;;;;;5056955;28;20434;-58
2021/07/11 13:58:24;;;;;;;4.37;3.80;;;;;;;;;;5054861;28;20442;-56
2021/07/11 14:01:18;;;;;;;7.13;3.27;;;;;;;;;;5055143;28;20445;-57
2021/07/11 14:03:50;;;;;;;4.43;2.80;;;;;;;;;;5054473;28;20467;-58
2021/07/11 14:06:19;;;;;;;5.33;3.10;;;;;;;;;;5056076;28;20655;-58
2021/07/11 14:11:52;;;;;;;6.03;3.50;;;;;;;;;;5051735;28;20464;-58
2021/07/11 14:14:21;;;;;;;10.30;7.73;;;;;;;;;;5053301;28;20513;-58
2021/07/11 14:16:50;;;;;;;3.70;3.00;;;;;;;;;;5053245;28;20466;-57
2021/07/11 14:19:18;;;;;;;6.33;4.77;;;;;;;;;;5052771;28;20469;-59
2021/07/11 14:21:54;;;;;;;5.83;4.90;;;;;;;;;;5054061;28;20415;-59
2021/07/11 14:27:27;;;;;;;6.47;4.10;;;;;;;;;;5053303;28;20624;-57
2021/07/11 14:30:16;;;;;;;5.00;3.20;;;;;;;;;;5053392;28;20523;-58
2021/07/11 14:33:05;;;;;;;8.20;4.73;;;;;;;;;;5054244;28;20442;-58
2021/07/11 14:35:33;;;;;;;6.20;4.00;;;;;;;;;;5053244;28;20549;-55
2021/07/11 14:38:03;;;;;;;5.43;3.60;;;;;;;;;;5053415;28;20472;-60
2021/07/11 14:41:02;;;;;;;5.93;3.80;;;;;;;;;;5053525;28;20442;-59
2021/07/11 14:43:31;;;;;;;5.00;3.47;;;;;;;;;;5053639;28;20504;-56
2021/07/11 14:46:11;;;;;;;4.10;3.07;;;;;;;;;;5040476;28;20458;-59
2021/07/11 14:48:50;;;;;;;4.77;3.50;;;;;;;;;;5053143;28;20445;-55
2021/07/11 14:51:18;;;;;;;6.03;4.27;;;;;;;;;;5053594;28;20471;-58
2021/07/11 14:53:53;;;;;;;12.03;10.10;;;;;;;;;;5054096;28;20457;-59
2021/07/11 14:56:23;;;;;;;9.90;7.90;;;;;;;;;;5052687;28;20493;-57
2021/07/11 14:59:01;;;;;;;5.60;4.57;;;;;;;;;;5126329;27;20494;-54
2021/07/11 15:01:34;;;;;;;7.23;4.80;;;;;;;;;;5159584;27;20488;-58
2021/07/11 15:04:03;;;;;;;8.43;5.00;;;;;;;;;;5179466;27;20436;-57
2021/07/11 15:06:35;;;;;;;6.83;5.30;;;;;;;;;;5179145;27;20428;-57
2021/07/11 15:09:34;;;;;;;8.77;4.50;;;;;;;;;;5177949;27;20447;-58
2021/07/11 15:12:05;;;;;;;6.67;4.37;;;;;;;;;;5178235;27;20454;-56
2021/07/11 15:14:41;;;;;;;4.57;3.53;;;;;;;;;;5172337;27;20511;-58
2021/07/11 15:17:28;;;;;;;6.07;5.30;;;;;;;;;;5158007;27;20452;-56
2021/07/11 15:20:01;;;;;;;6.60;4.10;;;;;;;;;;5151724;27;20568;-57
2021/07/11 15:25:24;;;;;;;4.83;4.13;;;;;;;;;;5136510;27;20426;-59
2021/07/11 15:27:51;;;;;;;9.77;6.83;;;;;;;;;;5151797;27;20433;-56
2021/07/11 15:33:42;;;;;;;7.27;4.60;;;;;;;;;;5146239;27;20474;-58
2021/07/11 15:36:12;;;;;;;8.17;4.67;;;;;;;;;;5155821;27;20463;-57
2021/07/11 15:39:13;;;;;;;8.90;8.00;;;;;;;;;;5154497;27;20443;-58
2021/07/11 15:41:44;;;;;;;5.53;4.77;;;;;;;;;;5151617;27;20499;-58